sensor_id;sensor_type;location;lat;lon;timestamp;P1;durP1;ratioP1;P2;durP2;ratioP2
63050;SDS011;49136;47.416;19.402;2023-03-03T00:01:10;14.13;;;7.47;;
63050;SDS011;49136;47.416;19.402;2023-03-03T00:03:35;23.23;;;9.85;;
63050;SDS011;49136;47.416;19.402;2023-03-03T00:06:01;14.75;;;8.80;;
63050;SDS011;49136;47.416;19.402;2023-03-03T00:08:28;13.52;;;9.13;;
63050;SDS011;49136;47.416;19.402;2023-03-03T00:10:53;10.40;;;7.90;;
63050;SDS011;49136;47.416;19.402;2023-03-03T00:13:23;22.42;;;9.48;;
63050;SDS011;49136;47.416;19.402;2023-03-03T00:15:50;27.73;;;10.30;;
63050;SDS011;49136;47.416;19.402;2023-03-03T00:20:58;12.25;;;5.70;;
63050;SDS011;49136;47.416;19.402;2023-03-03T00:23:38;30.92;;;9.73;;
63050;SDS011;49136;47.416;19.402;2023-03-03T00:28:50;17.95;;;7.80;;
63050;SDS011;49136;47.416;19.402;2023-03-03T00:31:18;26.35;;;7.35;;
63050;SDS011;49136;47.416;19.402;2023-03-03T00:33:49;15.30;;;9.95;;
63050;SDS011;49136;47.416;19.402;2023-03-03T00:41:41;19.20;;;6.70;;
63050;SDS011;49136;47.416;19.402;2023-03-03T00:46:49;17.42;;;8.02;;
63050;SDS011;49136;47.416;19.402;2023-03-03T00:49:21;11.68;;;8.20;;
63050;SDS011;49136;47.416;19.402;2023-03-03T00:51:50;15.57;;;7.78;;
63050;SDS011;49136;47.416;19.402;2023-03-03T00:54:16;27.52;;;9.15;;
63050;SDS011;49136;47.416;19.402;2023-03-03T00:56:41;21.75;;;8.48;;
63050;SDS011;49136;47.416;19.402;2023-03-03T00:59:07;14.88;;;9.00;;
63050;SDS011;49136;47.416;19.402;2023-03-03T01:01:32;28.67;;;10.55;;
63050;SDS011;49136;47.416;19.402;2023-03-03T01:03:58;13.45;;;7.95;;
63050;SDS011;49136;47.416;19.402;2023-03-03T01:06:23;12.25;;;7.45;;
63050;SDS011;49136;47.416;19.402;2023-03-03T01:08:49;11.40;;;7.53;;
63050;SDS011;49136;47.416;19.402;2023-03-03T01:11:15;14.23;;;7.28;;
63050;SDS011;49136;47.416;19.402;2023-03-03T01:13:46;27.90;;;7.95;;
63050;SDS011;49136;47.416;19.402;2023-03-03T01:16:13;9.15;;;6.85;;
63050;SDS011;49136;47.416;19.402;2023-03-03T01:18:38;22.63;;;8.23;;
63050;SDS011;49136;47.416;19.402;2023-03-03T01:21:06;35.63;;;7.55;;
63050;SDS011;49136;47.416;19.402;2023-03-03T01:23:32;23.00;;;9.75;;
63050;SDS011;49136;47.416;19.402;2023-03-03T01:25:58;23.27;;;9.75;;
63050;SDS011;49136;47.416;19.402;2023-03-03T01:28:23;12.52;;;8.20;;
63050;SDS011;49136;47.416;19.402;2023-03-03T01:30:49;28.67;;;9.85;;
63050;SDS011;49136;47.416;19.402;2023-03-03T01:33:15;25.30;;;7.82;;
63050;SDS011;49136;47.416;19.402;2023-03-03T01:35:44;19.67;;;9.63;;
63050;SDS011;49136;47.416;19.402;2023-03-03T01:38:11;25.27;;;9.57;;
63050;SDS011;49136;47.416;19.402;2023-03-03T01:40:37;25.58;;;9.38;;
63050;SDS011;49136;47.416;19.402;2023-03-03T01:43:03;12.32;;;9.30;;
63050;SDS011;49136;47.416;19.402;2023-03-03T01:45:29;14.27;;;5.60;;
63050;SDS011;49136;47.416;19.402;2023-03-03T01:48:55;29.92;;;7.82;;
63050;SDS011;49136;47.416;19.402;2023-03-03T01:50:55;18.08;;;9.80;;
63050;SDS011;49136;47.416;19.402;2023-03-03T01:53:29;24.65;;;10.40;;
63050;SDS011;49136;47.416;19.402;2023-03-03T01:56:00;12.23;;;7.47;;
63050;SDS011;49136;47.416;19.402;2023-03-03T01:58:33;12.73;;;9.30;;
63050;SDS011;49136;47.416;19.402;2023-03-03T02:01:01;23.75;;;9.73;;
63050;SDS011;49136;47.416;19.402;2023-03-03T02:03:29;25.25;;;7.35;;
63050;SDS011;49136;47.416;19.402;2023-03-03T02:05:56;12.20;;;7.55;;
63050;SDS011;49136;47.416;19.402;2023-03-03T02:10:58;6.63;;;5.43;;
63050;SDS011;49136;47.416;19.402;2023-03-03T02:13:24;8.90;;;6.88;;
63050;SDS011;49136;47.416;19.402;2023-03-03T02:15:50;11.32;;;7.07;;
63050;SDS011;49136;47.416;19.402;2023-03-03T02:18:17;9.73;;;7.30;;
63050;SDS011;49136;47.416;19.402;2023-03-03T02:23:22;12.82;;;9.30;;
63050;SDS011;49136;47.416;19.402;2023-03-03T02:28:29;15.43;;;9.15;;
63050;SDS011;49136;47.416;19.402;2023-03-03T02:30:59;21.02;;;8.73;;
63050;SDS011;49136;47.416;19.402;2023-03-03T02:33:25;16.45;;;10.43;;
63050;SDS011;49136;47.416;19.402;2023-03-03T02:35:51;17.90;;;9.98;;
63050;SDS011;49136;47.416;19.402;2023-03-03T02:38:24;26.80;;;7.07;;
63050;SDS011;49136;47.416;19.402;2023-03-03T02:43:32;12.57;;;8.38;;
63050;SDS011;49136;47.416;19.402;2023-03-03T02:46:05;14.40;;;9.35;;
63050;SDS011;49136;47.416;19.402;2023-03-03T02:48:31;20.30;;;8.77;;
63050;SDS011;49136;47.416;19.402;2023-03-03T02:50:56;21.55;;;8.57;;
63050;SDS011;49136;47.416;19.402;2023-03-03T02:53:22;21.10;;;9.02;;
63050;SDS011;49136;47.416;19.402;2023-03-03T02:55:47;20.27;;;9.10;;
63050;SDS011;49136;47.416;19.402;2023-03-03T02:58:13;19.02;;;8.38;;
63050;SDS011;49136;47.416;19.402;2023-03-03T03:00:38;17.60;;;7.00;;
63050;SDS011;49136;47.416;19.402;2023-03-03T03:03:04;19.25;;;9.02;;
63050;SDS011;49136;47.416;19.402;2023-03-03T03:05:29;9.02;;;6.63;;
63050;SDS011;49136;47.416;19.402;2023-03-03T03:07:54;7.60;;;5.47;;
63050;SDS011;49136;47.416;19.402;2023-03-03T03:10:20;16.73;;;7.28;;
63050;SDS011;49136;47.416;19.402;2023-03-03T03:12:45;21.90;;;7.60;;
63050;SDS011;49136;47.416;19.402;2023-03-03T03:15:11;13.05;;;8.10;;
63050;SDS011;49136;47.416;19.402;2023-03-03T03:17:37;12.60;;;7.30;;
63050;SDS011;49136;47.416;19.402;2023-03-03T03:20:02;13.63;;;6.45;;
63050;SDS011;49136;47.416;19.402;2023-03-03T03:22:28;13.23;;;6.55;;
63050;SDS011;49136;47.416;19.402;2023-03-03T03:24:54;18.40;;;7.55;;
63050;SDS011;49136;47.416;19.402;2023-03-03T03:27:19;11.73;;;5.78;;
63050;SDS011;49136;47.416;19.402;2023-03-03T03:29:45;11.90;;;5.30;;
63050;SDS011;49136;47.416;19.402;2023-03-03T03:32:10;13.52;;;6.85;;
63050;SDS011;49136;47.416;19.402;2023-03-03T03:34:36;13.35;;;5.40;;
63050;SDS011;49136;47.416;19.402;2023-03-03T03:37:02;12.25;;;5.53;;
63050;SDS011;49136;47.416;19.402;2023-03-03T03:39:27;13.80;;;4.85;;
63050;SDS011;49136;47.416;19.402;2023-03-03T03:41:53;11.93;;;6.28;;
63050;SDS011;49136;47.416;19.402;2023-03-03T03:44:18;8.70;;;4.15;;
63050;SDS011;49136;47.416;19.402;2023-03-03T03:46:44;7.47;;;4.63;;
63050;SDS011;49136;47.416;19.402;2023-03-03T03:49:09;8.30;;;5.03;;
63050;SDS011;49136;47.416;19.402;2023-03-03T03:51:35;11.60;;;4.63;;
63050;SDS011;49136;47.416;19.402;2023-03-03T03:54:05;8.30;;;5.63;;
63050;SDS011;49136;47.416;19.402;2023-03-03T03:56:30;11.80;;;5.90;;
63050;SDS011;49136;47.416;19.402;2023-03-03T03:58:56;8.50;;;4.60;;
63050;SDS011;49136;47.416;19.402;2023-03-03T04:01:21;11.63;;;4.63;;
63050;SDS011;49136;47.416;19.402;2023-03-03T04:03:47;10.63;;;5.53;;
63050;SDS011;49136;47.416;19.402;2023-03-03T04:06:13;11.85;;;5.70;;
63050;SDS011;49136;47.416;19.402;2023-03-03T04:08:38;11.93;;;7.18;;
63050;SDS011;49136;47.416;19.402;2023-03-03T04:11:04;23.50;;;6.97;;
63050;SDS011;49136;47.416;19.402;2023-03-03T04:13:29;13.32;;;4.80;;
63050;SDS011;49136;47.416;19.402;2023-03-03T04:15:56;15.15;;;6.05;;
63050;SDS011;49136;47.416;19.402;2023-03-03T04:18:21;16.38;;;6.28;;
63050;SDS011;49136;47.416;19.402;2023-03-03T04:20:47;25.80;;;9.00;;
63050;SDS011;49136;47.416;19.402;2023-03-03T04:23:12;20.45;;;10.40;;
63050;SDS011;49136;47.416;19.402;2023-03-03T04:25:38;25.05;;;7.32;;
63050;SDS011;49136;47.416;19.402;2023-03-03T04:28:04;21.33;;;9.40;;
63050;SDS011;49136;47.416;19.402;2023-03-03T04:30:30;13.35;;;7.35;;
63050;SDS011;49136;47.416;19.402;2023-03-03T04:32:55;14.88;;;7.03;;
63050;SDS011;49136;47.416;19.402;2023-03-03T04:35:21;16.42;;;7.03;;
63050;SDS011;49136;47.416;19.402;2023-03-03T04:37:46;14.02;;;6.22;;
63050;SDS011;49136;47.416;19.402;2023-03-03T04:40:12;11.88;;;6.20;;
63050;SDS011;49136;47.416;19.402;2023-03-03T04:42:37;15.43;;;7.28;;
63050;SDS011;49136;47.416;19.402;2023-03-03T04:45:03;8.77;;;6.18;;
63050;SDS011;49136;47.416;19.402;2023-03-03T04:47:29;15.80;;;6.50;;
63050;SDS011;49136;47.416;19.402;2023-03-03T04:49:56;11.95;;;7.55;;
63050;SDS011;49136;47.416;19.402;2023-03-03T04:52:21;14.52;;;7.80;;
63050;SDS011;49136;47.416;19.402;2023-03-03T04:54:47;14.02;;;7.75;;
63050;SDS011;49136;47.416;19.402;2023-03-03T04:57:12;14.43;;;6.18;;
63050;SDS011;49136;47.416;19.402;2023-03-03T04:59:38;10.80;;;4.75;;
63050;SDS011;49136;47.416;19.402;2023-03-03T05:02:03;9.35;;;5.15;;
63050;SDS011;49136;47.416;19.402;2023-03-03T05:04:29;12.80;;;6.05;;
63050;SDS011;49136;47.416;19.402;2023-03-03T05:06:54;21.35;;;7.90;;
63050;SDS011;49136;47.416;19.402;2023-03-03T05:09:21;22.48;;;8.73;;
63050;SDS011;49136;47.416;19.402;2023-03-03T05:11:47;11.73;;;7.15;;
63050;SDS011;49136;47.416;19.402;2023-03-03T05:14:12;13.50;;;4.97;;
63050;SDS011;49136;47.416;19.402;2023-03-03T05:16:38;13.65;;;6.30;;
63050;SDS011;49136;47.416;19.402;2023-03-03T05:19:03;10.73;;;5.22;;
63050;SDS011;49136;47.416;19.402;2023-03-03T05:21:28;14.55;;;7.00;;
63050;SDS011;49136;47.416;19.402;2023-03-03T05:23:54;23.80;;;8.18;;
63050;SDS011;49136;47.416;19.402;2023-03-03T05:26:19;15.43;;;7.38;;
63050;SDS011;49136;47.416;19.402;2023-03-03T05:28:45;38.08;;;8.55;;
63050;SDS011;49136;47.416;19.402;2023-03-03T05:31:10;19.45;;;5.60;;
63050;SDS011;49136;47.416;19.402;2023-03-03T05:33:36;18.30;;;5.63;;
63050;SDS011;49136;47.416;19.402;2023-03-03T05:36:02;15.00;;;5.70;;
63050;SDS011;49136;47.416;19.402;2023-03-03T05:38:27;10.63;;;6.25;;
63050;SDS011;49136;47.416;19.402;2023-03-03T05:40:53;10.15;;;6.75;;
63050;SDS011;49136;47.416;19.402;2023-03-03T05:43:19;22.33;;;8.73;;
63050;SDS011;49136;47.416;19.402;2023-03-03T05:45:44;17.38;;;9.35;;
63050;SDS011;49136;47.416;19.402;2023-03-03T05:48:10;16.92;;;7.82;;
63050;SDS011;49136;47.416;19.402;2023-03-03T05:50:36;13.98;;;7.05;;
63050;SDS011;49136;47.416;19.402;2023-03-03T05:53:02;18.65;;;7.65;;
63050;SDS011;49136;47.416;19.402;2023-03-03T05:55:28;7.88;;;4.90;;
63050;SDS011;49136;47.416;19.402;2023-03-03T05:57:54;9.10;;;4.97;;
63050;SDS011;49136;47.416;19.402;2023-03-03T06:00:19;8.88;;;6.00;;
63050;SDS011;49136;47.416;19.402;2023-03-03T06:02:45;12.57;;;5.65;;
63050;SDS011;49136;47.416;19.402;2023-03-03T06:05:10;13.65;;;6.63;;
63050;SDS011;49136;47.416;19.402;2023-03-03T06:07:36;7.78;;;5.82;;
63050;SDS011;49136;47.416;19.402;2023-03-03T06:10:02;15.95;;;5.80;;
63050;SDS011;49136;47.416;19.402;2023-03-03T06:12:28;19.83;;;7.43;;
63050;SDS011;49136;47.416;19.402;2023-03-03T06:14:53;10.30;;;7.97;;
63050;SDS011;49136;47.416;19.402;2023-03-03T06:17:19;12.70;;;8.52;;
63050;SDS011;49136;47.416;19.402;2023-03-03T06:19:44;18.52;;;8.32;;
63050;SDS011;49136;47.416;19.402;2023-03-03T06:22:11;15.13;;;6.60;;
63050;SDS011;49136;47.416;19.402;2023-03-03T06:24:37;15.60;;;8.07;;
63050;SDS011;49136;47.416;19.402;2023-03-03T06:27:02;16.30;;;7.65;;
63050;SDS011;49136;47.416;19.402;2023-03-03T06:29:28;15.32;;;8.35;;
63050;SDS011;49136;47.416;19.402;2023-03-03T06:31:53;13.90;;;6.03;;
63050;SDS011;49136;47.416;19.402;2023-03-03T06:34:19;21.75;;;8.88;;
63050;SDS011;49136;47.416;19.402;2023-03-03T06:36:45;37.42;;;9.98;;
63050;SDS011;49136;47.416;19.402;2023-03-03T06:39:10;23.50;;;9.00;;
63050;SDS011;49136;47.416;19.402;2023-03-03T06:41:36;18.75;;;9.95;;
63050;SDS011;49136;47.416;19.402;2023-03-03T06:44:02;25.17;;;7.95;;
63050;SDS011;49136;47.416;19.402;2023-03-03T06:46:27;23.70;;;10.32;;
63050;SDS011;49136;47.416;19.402;2023-03-03T06:48:53;19.77;;;12.52;;
63050;SDS011;49136;47.416;19.402;2023-03-03T06:51:21;19.70;;;9.43;;
63050;SDS011;49136;47.416;19.402;2023-03-03T06:53:50;33.70;;;15.40;;
63050;SDS011;49136;47.416;19.402;2023-03-03T06:56:18;33.58;;;16.65;;
63050;SDS011;49136;47.416;19.402;2023-03-03T06:58:44;73.05;;;26.60;;
63050;SDS011;49136;47.416;19.402;2023-03-03T07:01:13;73.45;;;26.67;;
63050;SDS011;49136;47.416;19.402;2023-03-03T07:03:41;50.90;;;19.77;;
63050;SDS011;49136;47.416;19.402;2023-03-03T07:06:40;54.63;;;22.25;;
63050;SDS011;49136;47.416;19.402;2023-03-03T07:08:58;52.35;;;22.05;;
63050;SDS011;49136;47.416;19.402;2023-03-03T07:11:24;45.50;;;18.67;;
63050;SDS011;49136;47.416;19.402;2023-03-03T07:13:50;54.28;;;20.85;;
63050;SDS011;49136;47.416;19.402;2023-03-03T07:16:19;37.97;;;19.08;;
63050;SDS011;49136;47.416;19.402;2023-03-03T07:19:00;73.22;;;20.50;;
63050;SDS011;49136;47.416;19.402;2023-03-03T07:21:32;43.17;;;22.42;;
63050;SDS011;49136;47.416;19.402;2023-03-03T07:24:00;39.85;;;20.15;;
63050;SDS011;49136;47.416;19.402;2023-03-03T07:26:48;47.17;;;18.25;;
63050;SDS011;49136;47.416;19.402;2023-03-03T07:31:50;63.30;;;20.83;;
63050;SDS011;49136;47.416;19.402;2023-03-03T07:36:42;53.50;;;22.38;;
63050;SDS011;49136;47.416;19.402;2023-03-03T07:41:45;53.08;;;18.88;;
63050;SDS011;49136;47.416;19.402;2023-03-03T07:44:18;60.47;;;21.52;;
63050;SDS011;49136;47.416;19.402;2023-03-03T07:46:46;43.58;;;16.95;;
63050;SDS011;49136;47.416;19.402;2023-03-03T07:51:44;56.05;;;20.73;;
63050;SDS011;49136;47.416;19.402;2023-03-03T07:56:49;44.47;;;20.83;;
63050;SDS011;49136;47.416;19.402;2023-03-03T07:59:20;66.78;;;21.67;;
63050;SDS011;49136;47.416;19.402;2023-03-03T08:01:57;62.97;;;18.45;;
63050;SDS011;49136;47.416;19.402;2023-03-03T08:04:40;48.05;;;15.30;;
63050;SDS011;49136;47.416;19.402;2023-03-03T08:07:13;51.40;;;19.52;;
63050;SDS011;49136;47.416;19.402;2023-03-03T08:15:21;60.30;;;22.65;;
63050;SDS011;49136;47.416;19.402;2023-03-03T08:17:52;70.85;;;26.20;;
63050;SDS011;49136;47.416;19.402;2023-03-03T08:23:30;56.50;;;20.80;;
63050;SDS011;49136;47.416;19.402;2023-03-03T08:25:55;70.47;;;24.33;;
63050;SDS011;49136;47.416;19.402;2023-03-03T08:28:21;55.55;;;21.63;;
63050;SDS011;49136;47.416;19.402;2023-03-03T08:30:47;47.15;;;17.05;;
63050;SDS011;49136;47.416;19.402;2023-03-03T08:33:13;45.15;;;17.08;;
63050;SDS011;49136;47.416;19.402;2023-03-03T08:35:39;42.67;;;14.98;;
63050;SDS011;49136;47.416;19.402;2023-03-03T08:38:04;40.15;;;16.48;;
63050;SDS011;49136;47.416;19.402;2023-03-03T08:40:31;53.10;;;18.40;;
63050;SDS011;49136;47.416;19.402;2023-03-03T08:42:57;45.90;;;17.15;;
63050;SDS011;49136;47.416;19.402;2023-03-03T08:45:23;42.03;;;13.35;;
63050;SDS011;49136;47.416;19.402;2023-03-03T08:47:48;38.33;;;13.55;;
63050;SDS011;49136;47.416;19.402;2023-03-03T08:50:14;34.97;;;16.10;;
63050;SDS011;49136;47.416;19.402;2023-03-03T08:52:39;37.65;;;14.00;;
63050;SDS011;49136;47.416;19.402;2023-03-03T08:55:05;35.75;;;13.32;;
63050;SDS011;49136;47.416;19.402;2023-03-03T08:57:31;36.17;;;12.32;;
63050;SDS011;49136;47.416;19.402;2023-03-03T08:59:56;39.72;;;11.77;;
63050;SDS011;49136;47.416;19.402;2023-03-03T09:02:22;28.80;;;9.20;;
63050;SDS011;49136;47.416;19.402;2023-03-03T09:04:47;30.63;;;12.23;;
63050;SDS011;49136;47.416;19.402;2023-03-03T09:07:13;35.22;;;11.93;;
63050;SDS011;49136;47.416;19.402;2023-03-03T09:09:38;34.67;;;14.30;;
63050;SDS011;49136;47.416;19.402;2023-03-03T09:12:08;36.70;;;14.40;;
63050;SDS011;49136;47.416;19.402;2023-03-03T09:14:40;43.25;;;16.25;;
63050;SDS011;49136;47.416;19.402;2023-03-03T09:17:13;33.05;;;13.32;;
63050;SDS011;49136;47.416;19.402;2023-03-03T09:19:57;35.80;;;12.80;;
63050;SDS011;49136;47.416;19.402;2023-03-03T09:22:26;42.50;;;13.70;;
63050;SDS011;49136;47.416;19.402;2023-03-03T09:24:53;47.72;;;14.88;;
63050;SDS011;49136;47.416;19.402;2023-03-03T09:27:28;43.33;;;14.52;;
63050;SDS011;49136;47.416;19.402;2023-03-03T09:32:48;32.17;;;12.75;;
63050;SDS011;49136;47.416;19.402;2023-03-03T09:35:34;31.15;;;14.65;;
63050;SDS011;49136;47.416;19.402;2023-03-03T09:38:09;36.10;;;14.13;;
63050;SDS011;49136;47.416;19.402;2023-03-03T09:43:41;49.08;;;16.02;;
63050;SDS011;49136;47.416;19.402;2023-03-03T09:58:10;28.25;;;10.98;;
63050;SDS011;49136;47.416;19.402;2023-03-03T10:06:10;35.50;;;12.50;;
63050;SDS011;49136;47.416;19.402;2023-03-03T10:11:42;24.58;;;10.82;;
63050;SDS011;49136;47.416;19.402;2023-03-03T10:19:39;23.08;;;8.63;;
63050;SDS011;49136;47.416;19.402;2023-03-03T10:25:06;21.15;;;8.35;;
63050;SDS011;49136;47.416;19.402;2023-03-03T10:30:46;29.23;;;9.75;;
63050;SDS011;49136;47.416;19.402;2023-03-03T10:44:17;21.15;;;8.68;;
63050;SDS011;49136;47.416;19.402;2023-03-03T10:55:15;25.63;;;8.77;;
63050;SDS011;49136;47.416;19.402;2023-03-03T10:58:07;25.05;;;8.57;;
63050;SDS011;49136;47.416;19.402;2023-03-03T11:00:42;18.23;;;6.78;;
63050;SDS011;49136;47.416;19.402;2023-03-03T11:16:49;27.98;;;7.03;;
63050;SDS011;49136;47.416;19.402;2023-03-03T11:32:44;15.85;;;5.72;;
63050;SDS011;49136;47.416;19.402;2023-03-03T11:40:53;21.98;;;7.88;;
63050;SDS011;49136;47.416;19.402;2023-03-03T11:43:26;23.20;;;7.93;;
63050;SDS011;49136;47.416;19.402;2023-03-03T11:45:59;30.98;;;8.60;;
63050;SDS011;49136;47.416;19.402;2023-03-03T11:54:26;32.05;;;8.70;;
63050;SDS011;49136;47.416;19.402;2023-03-03T11:56:59;17.00;;;7.28;;
63050;SDS011;49136;47.416;19.402;2023-03-03T12:05:30;22.63;;;7.35;;
63050;SDS011;49136;47.416;19.402;2023-03-03T12:38:49;25.90;;;8.80;;
63050;SDS011;49136;47.416;19.402;2023-03-03T12:44:19;28.75;;;9.35;;
63050;SDS011;49136;47.416;19.402;2023-03-03T12:47:03;23.40;;;8.75;;
63050;SDS011;49136;47.416;19.402;2023-03-03T12:52:20;39.42;;;10.07;;
63050;SDS011;49136;47.416;19.402;2023-03-03T12:57:42;31.17;;;10.85;;
63050;SDS011;49136;47.416;19.402;2023-03-03T13:02:56;34.85;;;11.05;;
63050;SDS011;49136;47.416;19.402;2023-03-03T13:21:09;26.27;;;10.10;;
63050;SDS011;49136;47.416;19.402;2023-03-03T13:32:22;31.13;;;9.85;;
63050;SDS011;49136;47.416;19.402;2023-03-03T13:37:34;40.40;;;10.38;;
63050;SDS011;49136;47.416;19.402;2023-03-03T13:45:48;29.33;;;10.60;;
63050;SDS011;49136;47.416;19.402;2023-03-03T13:54:03;27.23;;;10.00;;
63050;SDS011;49136;47.416;19.402;2023-03-03T13:59:38;33.50;;;12.15;;
63050;SDS011;49136;47.416;19.402;2023-03-03T14:07:18;35.42;;;11.23;;
63050;SDS011;49136;47.416;19.402;2023-03-03T14:09:58;34.75;;;10.68;;
63050;SDS011;49136;47.416;19.402;2023-03-03T14:12:38;30.08;;;9.63;;
63050;SDS011;49136;47.416;19.402;2023-03-03T14:15:26;33.10;;;10.10;;
63050;SDS011;49136;47.416;19.402;2023-03-03T14:21:08;25.90;;;10.57;;
63050;SDS011;49136;47.416;19.402;2023-03-03T14:23:57;35.63;;;10.68;;
63050;SDS011;49136;47.416;19.402;2023-03-03T14:26:34;39.90;;;10.80;;
63050;SDS011;49136;47.416;19.402;2023-03-03T14:31:51;35.03;;;10.48;;
63050;SDS011;49136;47.416;19.402;2023-03-03T14:34:35;37.85;;;12.13;;
63050;SDS011;49136;47.416;19.402;2023-03-03T14:37:24;38.33;;;11.27;;
63050;SDS011;49136;47.416;19.402;2023-03-03T14:42:53;30.60;;;11.18;;
63050;SDS011;49136;47.416;19.402;2023-03-03T14:48:09;35.08;;;9.93;;
63050;SDS011;49136;47.416;19.402;2023-03-03T14:50:42;26.17;;;9.27;;
63050;SDS011;49136;47.416;19.402;2023-03-03T14:58:50;34.47;;;13.35;;
63050;SDS011;49136;47.416;19.402;2023-03-03T15:03:58;23.77;;;10.25;;
63050;SDS011;49136;47.416;19.402;2023-03-03T15:11:58;30.05;;;12.00;;
63050;SDS011;49136;47.416;19.402;2023-03-03T15:14:45;37.78;;;12.90;;
63050;SDS011;49136;47.416;19.402;2023-03-03T15:17:25;33.88;;;12.07;;
63050;SDS011;49136;47.416;19.402;2023-03-03T15:43:01;48.05;;;14.73;;
63050;SDS011;49136;47.416;19.402;2023-03-03T15:45:53;66.40;;;24.25;;
63050;SDS011;49136;47.416;19.402;2023-03-03T15:56:53;55.50;;;18.70;;
63050;SDS011;49136;47.416;19.402;2023-03-03T16:07:43;47.53;;;14.98;;
63050;SDS011;49136;47.416;19.402;2023-03-03T16:10:14;43.15;;;14.07;;
63050;SDS011;49136;47.416;19.402;2023-03-03T16:13:04;66.28;;;16.83;;
63050;SDS011;49136;47.416;19.402;2023-03-03T16:18:45;143.00;;;36.20;;
63050;SDS011;49136;47.416;19.402;2023-03-03T16:21:46;89.60;;;24.83;;
63050;SDS011;49136;47.416;19.402;2023-03-03T16:29:41;56.25;;;20.50;;
63050;SDS011;49136;47.416;19.402;2023-03-03T16:40:19;60.65;;;19.35;;
63050;SDS011;49136;47.416;19.402;2023-03-03T16:46:29;45.13;;;19.88;;
63050;SDS011;49136;47.416;19.402;2023-03-03T16:49:15;66.28;;;20.33;;
63050;SDS011;49136;47.416;19.402;2023-03-03T17:05:05;101.20;;;28.73;;
63050;SDS011;49136;47.416;19.402;2023-03-03T17:16:00;71.55;;;26.33;;
63050;SDS011;49136;47.416;19.402;2023-03-03T17:21:01;410.35;;;103.35;;
63050;SDS011;49136;47.416;19.402;2023-03-03T17:29:35;77.95;;;27.33;;
63050;SDS011;49136;47.416;19.402;2023-03-03T17:33:06;69.22;;;25.42;;
63050;SDS011;49136;47.416;19.402;2023-03-03T17:43:21;55.45;;;23.52;;
63050;SDS011;49136;47.416;19.402;2023-03-03T17:45:51;56.03;;;21.38;;
63050;SDS011;49136;47.416;19.402;2023-03-03T17:53:57;48.92;;;14.90;;
63050;SDS011;49136;47.416;19.402;2023-03-03T18:13:27;47.35;;;14.23;;
63050;SDS011;49136;47.416;19.402;2023-03-03T18:16:26;57.78;;;14.00;;
63050;SDS011;49136;47.416;19.402;2023-03-03T18:24:13;42.60;;;12.98;;
63050;SDS011;49136;47.416;19.402;2023-03-03T18:26:52;37.30;;;15.23;;
63050;SDS011;49136;47.416;19.402;2023-03-03T18:29:22;42.10;;;12.77;;
63050;SDS011;49136;47.416;19.402;2023-03-03T18:36:50;35.55;;;15.43;;
63050;SDS011;49136;47.416;19.402;2023-03-03T18:44:35;41.00;;;14.57;;
63050;SDS011;49136;47.416;19.402;2023-03-03T18:47:01;31.92;;;13.60;;
63050;SDS011;49136;47.416;19.402;2023-03-03T18:52:29;46.70;;;16.77;;
63050;SDS011;49136;47.416;19.402;2023-03-03T18:57:37;36.73;;;13.33;;
63050;SDS011;49136;47.416;19.402;2023-03-03T19:00:23;37.25;;;13.15;;
63050;SDS011;49136;47.416;19.402;2023-03-03T19:02:58;45.20;;;16.58;;
63050;SDS011;49136;47.416;19.402;2023-03-03T19:05:31;44.60;;;18.33;;
63050;SDS011;49136;47.416;19.402;2023-03-03T19:11:01;52.60;;;23.27;;
63050;SDS011;49136;47.416;19.402;2023-03-03T19:16:00;62.30;;;19.98;;
63050;SDS011;49136;47.416;19.402;2023-03-03T19:18:28;62.78;;;22.73;;
63050;SDS011;49136;47.416;19.402;2023-03-03T19:21:00;74.25;;;22.48;;
63050;SDS011;49136;47.416;19.402;2023-03-03T19:31:43;57.45;;;22.40;;
63050;SDS011;49136;47.416;19.402;2023-03-03T19:34:53;39.20;;;16.08;;
63050;SDS011;49136;47.416;19.402;2023-03-03T19:37:31;61.65;;;21.75;;
63050;SDS011;49136;47.416;19.402;2023-03-03T19:43:55;44.55;;;18.10;;
63050;SDS011;49136;47.416;19.402;2023-03-03T19:46:15;51.88;;;19.27;;
63050;SDS011;49136;47.416;19.402;2023-03-03T19:51:59;46.67;;;16.50;;
63050;SDS011;49136;47.416;19.402;2023-03-03T19:54:44;51.70;;;17.08;;
63050;SDS011;49136;47.416;19.402;2023-03-03T20:17:19;44.53;;;12.38;;
63050;SDS011;49136;47.416;19.402;2023-03-03T20:25:02;29.35;;;11.73;;
63050;SDS011;49136;47.416;19.402;2023-03-03T20:30:40;45.15;;;16.17;;
63050;SDS011;49136;47.416;19.402;2023-03-03T20:47:45;36.72;;;11.73;;
63050;SDS011;49136;47.416;19.402;2023-03-03T21:06:56;9.77;;;7.65;;
63050;SDS011;49136;47.416;19.402;2023-03-03T21:09:30;21.67;;;7.68;;
63050;SDS011;49136;47.416;19.402;2023-03-03T21:11:57;10.63;;;7.32;;
63050;SDS011;49136;47.416;19.402;2023-03-03T21:14:26;10.43;;;6.65;;
63050;SDS011;49136;47.416;19.402;2023-03-03T21:16:55;20.77;;;8.65;;
63050;SDS011;49136;47.416;19.402;2023-03-03T21:21:49;20.63;;;9.07;;
63050;SDS011;49136;47.416;19.402;2023-03-03T21:24:16;15.60;;;8.10;;
63050;SDS011;49136;47.416;19.402;2023-03-03T21:29:18;14.52;;;6.90;;
63050;SDS011;49136;47.416;19.402;2023-03-03T21:31:45;22.55;;;7.18;;
63050;SDS011;49136;47.416;19.402;2023-03-03T21:34:29;19.33;;;9.20;;
63050;SDS011;49136;47.416;19.402;2023-03-03T21:36:56;23.33;;;7.45;;
63050;SDS011;49136;47.416;19.402;2023-03-03T21:42:03;14.25;;;7.22;;
63050;SDS011;49136;47.416;19.402;2023-03-03T21:44:39;10.93;;;6.32;;
63050;SDS011;49136;47.416;19.402;2023-03-03T21:47:09;4.38;;;3.70;;
63050;SDS011;49136;47.416;19.402;2023-03-03T21:49:39;12.50;;;6.82;;
63050;SDS011;49136;47.416;19.402;2023-03-03T21:52:08;12.20;;;6.85;;
63050;SDS011;49136;47.416;19.402;2023-03-03T21:54:35;8.30;;;5.60;;
63050;SDS011;49136;47.416;19.402;2023-03-03T21:57:00;12.77;;;5.53;;
63050;SDS011;49136;47.416;19.402;2023-03-03T21:59:26;14.23;;;7.50;;
63050;SDS011;49136;47.416;19.402;2023-03-03T22:01:51;10.15;;;5.65;;
63050;SDS011;49136;47.416;19.402;2023-03-03T22:04:17;11.13;;;4.65;;
63050;SDS011;49136;47.416;19.402;2023-03-03T22:06:42;18.05;;;5.38;;
63050;SDS011;49136;47.416;19.402;2023-03-03T22:09:08;19.55;;;7.93;;
63050;SDS011;49136;47.416;19.402;2023-03-03T22:11:34;17.10;;;6.47;;
63050;SDS011;49136;47.416;19.402;2023-03-03T22:13:59;18.25;;;8.63;;
63050;SDS011;49136;47.416;19.402;2023-03-03T22:16:25;16.48;;;7.00;;
63050;SDS011;49136;47.416;19.402;2023-03-03T22:18:50;13.85;;;6.97;;
63050;SDS011;49136;47.416;19.402;2023-03-03T22:21:16;12.90;;;9.43;;
63050;SDS011;49136;47.416;19.402;2023-03-03T22:23:41;21.23;;;9.82;;
63050;SDS011;49136;47.416;19.402;2023-03-03T22:26:07;22.02;;;9.48;;
63050;SDS011;49136;47.416;19.402;2023-03-03T22:28:32;21.38;;;8.18;;
63050;SDS011;49136;47.416;19.402;2023-03-03T22:30:58;21.13;;;8.40;;
63050;SDS011;49136;47.416;19.402;2023-03-03T22:33:23;17.13;;;8.18;;
63050;SDS011;49136;47.416;19.402;2023-03-03T22:35:49;16.40;;;9.00;;
63050;SDS011;49136;47.416;19.402;2023-03-03T22:38:14;9.27;;;6.25;;
63050;SDS011;49136;47.416;19.402;2023-03-03T22:40:40;11.80;;;6.28;;